logo
Search for airport 
image banner adimage banner adimage banner ad
image banner ad

LYBT - Beograd/Batajnica - Pukovnik-Pilot Milenko Pavlovic

Located in Beograd, Serbia and Montenegro

ICAO - LYBT, IATA - BJY

Data provided by Airmate  

General information

Coordinates: N44°56'28" E20°15'3"
Elevation is 281 feet MSL.
Magnetic variation is 5° East
View others Airports in Srem

Operational data

Special qualification required
Current time UTC:
Current local time:
Weather
METAR: LYBT 251700Z 30007KT CAVOK 27/13 Q1010 NOSIG
TAF: TAF LYBT 251100Z 2512/2612 33008KT CAVOK TX29/2612Z TN16/2603Z
View NOTAMs / SUP AIP / TFR affecting this airport [VIEW]
Communications frequencies: [VIEW]

Runways:

RWY identifierQFULength (ft)Width (ft)SurfaceLDA (ft)
12R125°8235148ASPH7999
30L305°8235148ASPH8235
12L125°8209148ASPH8209
30R305°8209148ASPH8209

Airport contact information

Address: Beograd Serbia and Montenegro

Satellite view of LYBT